createdAt,value
2022-08-27T00:00:48.859Z,16.90
2022-08-27T00:03:15.784Z,16.90
2022-08-27T00:05:43.273Z,16.90
2022-08-27T00:08:12.626Z,16.90
2022-08-27T00:10:41.008Z,16.90
2022-08-27T00:13:08.065Z,16.80
2022-08-27T00:15:35.364Z,16.80
2022-08-27T00:18:02.207Z,16.80
2022-08-27T00:20:29.200Z,16.80
2022-08-27T00:22:56.135Z,16.70
2022-08-27T00:25:23.363Z,16.60
2022-08-27T00:27:50.349Z,16.60
2022-08-27T00:30:20.321Z,16.50
2022-08-27T00:32:48.280Z,16.40
2022-08-27T00:35:16.140Z,16.30
2022-08-27T00:37:44.401Z,16.30
2022-08-27T00:40:18.581Z,16.20
2022-08-27T00:42:46.043Z,16.10
2022-08-27T00:45:15.399Z,16.10
2022-08-27T00:47:48.203Z,16.00
2022-08-27T00:50:20.781Z,16.00
2022-08-27T00:52:54.449Z,16.10
2022-08-27T00:55:49.104Z,16.00
2022-08-27T00:58:25.574Z,16.00
2022-08-27T01:00:55.090Z,15.90
2022-08-27T01:03:22.136Z,16.00
2022-08-27T01:05:50.022Z,16.00
2022-08-27T01:08:23.870Z,15.90
2022-08-27T01:10:52.042Z,15.80
2022-08-27T01:13:21.826Z,15.80
2022-08-27T01:16:11.257Z,15.80
2022-08-27T01:18:39.281Z,15.90
2022-08-27T01:21:40.594Z,15.90
2022-08-27T01:24:28.598Z,15.90
2022-08-27T01:26:56.105Z,15.90
2022-08-27T01:29:22.890Z,15.90
2022-08-27T01:31:49.742Z,15.90
2022-08-27T01:34:16.531Z,15.90
2022-08-27T01:36:43.356Z,15.80
2022-08-27T01:39:10.122Z,15.80
2022-08-27T01:41:39.828Z,15.60
2022-08-27T01:44:06.978Z,15.60
2022-08-27T01:46:33.788Z,15.60
2022-08-27T01:49:00.649Z,15.60
2022-08-27T01:51:27.395Z,15.70
2022-08-27T01:53:54.337Z,15.80
2022-08-27T01:56:21.156Z,15.90
2022-08-27T01:58:47.926Z,15.90
2022-08-27T02:01:16.854Z,15.90
2022-08-27T02:03:44.573Z,15.90
2022-08-27T02:06:12.232Z,16.00
2022-08-27T02:08:39.416Z,16.10
2022-08-27T02:11:08.313Z,16.10
2022-08-27T02:13:35.458Z,16.10
2022-08-27T02:16:02.646Z,16.10
2022-08-27T02:18:29.514Z,16.00
2022-08-27T02:20:56.260Z,16.00
2022-08-27T02:23:23.012Z,16.00
2022-08-27T02:25:50.973Z,16.00
2022-08-27T02:28:17.698Z,16.00
2022-08-27T02:30:44.628Z,16.00
2022-08-27T02:33:12.267Z,15.90
2022-08-27T02:35:40.513Z,15.90
2022-08-27T02:38:08.073Z,15.90
2022-08-27T02:40:36.098Z,15.90
2022-08-27T02:43:03.136Z,15.80
2022-08-27T02:45:30.290Z,15.80
2022-08-27T02:47:57.079Z,15.70
2022-08-27T02:50:26.921Z,15.60
2022-08-27T02:52:55.062Z,15.60
2022-08-27T02:55:22.683Z,15.60
2022-08-27T02:57:49.518Z,15.70
2022-08-27T03:00:19.382Z,15.60
2022-08-27T03:02:46.248Z,15.70
2022-08-27T03:05:13.977Z,15.80
2022-08-27T03:07:41.572Z,15.90
2022-08-27T03:10:10.914Z,15.90
2022-08-27T03:12:38.036Z,15.90
2022-08-27T03:15:09.432Z,15.90
2022-08-27T03:17:55.226Z,15.90
2022-08-27T03:20:22.739Z,15.90
2022-08-27T03:22:49.618Z,15.90
2022-08-27T03:25:17.041Z,15.90
2022-08-27T03:27:43.980Z,16.00
2022-08-27T03:30:15.919Z,15.90
2022-08-27T03:32:43.205Z,15.90
2022-08-27T03:35:11.657Z,16.00
2022-08-27T03:37:38.675Z,16.00
2022-08-27T03:40:07.249Z,16.00
2022-08-27T03:42:35.135Z,16.10
2022-08-27T03:45:01.975Z,16.10
2022-08-27T03:47:29.021Z,16.10
2022-08-27T03:49:56.070Z,16.10
2022-08-27T03:52:22.931Z,16.10
2022-08-27T03:54:49.944Z,16.10
2022-08-27T03:57:16.762Z,16.10
2022-08-27T03:59:43.628Z,16.10
2022-08-27T04:02:10.726Z,16.10
2022-08-27T04:04:37.612Z,16.10
2022-08-27T04:07:04.723Z,16.00
2022-08-27T04:09:31.687Z,15.90
2022-08-27T04:11:58.500Z,15.90
2022-08-27T04:14:26.937Z,15.90
2022-08-27T04:16:56.241Z,15.90
2022-08-27T04:19:27.750Z,15.80
2022-08-27T04:22:02.394Z,15.80
2022-08-27T04:24:30.899Z,15.80
2022-08-27T04:26:58.570Z,15.60
2022-08-27T04:29:25.426Z,15.60
2022-08-27T04:31:52.482Z,15.50
2022-08-27T04:34:19.827Z,15.60
2022-08-27T04:36:47.802Z,15.50
2022-08-27T04:39:15.090Z,15.50
2022-08-27T04:41:42.224Z,15.50
2022-08-27T04:44:10.810Z,15.40
2022-08-27T04:46:40.564Z,15.30
2022-08-27T04:49:11.483Z,15.20
2022-08-27T04:51:40.187Z,15.20
2022-08-27T04:54:07.941Z,15.10
2022-08-27T04:56:36.075Z,15.00
2022-08-27T04:59:05.036Z,15.00
2022-08-27T05:01:32.320Z,15.10
2022-08-27T05:03:59.307Z,15.20
2022-08-27T05:06:26.613Z,15.30
2022-08-27T05:08:54.356Z,15.30
2022-08-27T05:11:22.811Z,15.40
2022-08-27T05:13:50.594Z,15.50
2022-08-27T05:16:21.449Z,15.70
2022-08-27T05:18:50.381Z,15.80
2022-08-27T05:21:26.228Z,15.90
2022-08-27T05:23:54.944Z,15.90
2022-08-27T05:26:22.356Z,16.00
2022-08-27T05:28:49.128Z,16.00
2022-08-27T05:31:17.322Z,16.10
2022-08-27T05:33:44.257Z,16.10
2022-08-27T05:36:22.958Z,16.20
2022-08-27T05:38:50.350Z,16.20
2022-08-27T05:41:33.823Z,16.10
2022-08-27T05:44:18.465Z,16.10
2022-08-27T05:46:51.313Z,16.20
2022-08-27T05:49:18.427Z,16.30
2022-08-27T05:51:45.232Z,16.50
2022-08-27T05:54:16.723Z,16.60
2022-08-27T05:56:43.462Z,16.70
2022-08-27T05:59:28.963Z,16.80
2022-08-27T06:01:56.771Z,16.90
2022-08-27T06:04:24.894Z,17.10
2022-08-27T06:06:52.539Z,17.20
2022-08-27T06:09:22.166Z,17.40
2022-08-27T06:11:49.464Z,17.60
2022-08-27T06:14:16.487Z,17.60
2022-08-27T06:16:43.269Z,17.90
2022-08-27T06:19:14.167Z,18.00
2022-08-27T06:21:42.277Z,18.20
2022-08-27T06:24:12.162Z,18.30
2022-08-27T06:26:40.821Z,18.40
2022-08-27T06:29:10.210Z,18.60
2022-08-27T06:31:40.387Z,18.70
2022-08-27T06:34:09.125Z,18.90
2022-08-27T06:36:38.550Z,19.10
2022-08-27T06:39:06.393Z,19.10
2022-08-27T06:41:34.452Z,19.10
2022-08-27T06:44:01.294Z,19.00
2022-08-27T06:46:29.441Z,19.20
2022-08-27T06:48:59.383Z,19.20
2022-08-27T06:51:38.044Z,19.20
2022-08-27T06:54:08.876Z,19.10
2022-08-27T06:56:36.200Z,19.10
2022-08-27T06:59:06.648Z,19.10
2022-08-27T07:01:41.800Z,19.20
2022-08-27T07:04:11.952Z,19.20
2022-08-27T07:06:40.467Z,19.20
2022-08-27T07:09:09.036Z,19.20
2022-08-27T07:11:38.402Z,19.20
2022-08-27T07:14:06.448Z,19.30
2022-08-27T07:16:33.957Z,19.30
2022-08-27T07:19:04.002Z,19.30
2022-08-27T07:21:32.873Z,19.30
2022-08-27T07:24:04.898Z,19.20
2022-08-27T07:26:34.686Z,19.30
2022-08-27T07:29:01.916Z,19.30
2022-08-27T07:31:29.075Z,19.40
2022-08-27T07:33:55.873Z,19.40
2022-08-27T07:36:23.694Z,19.60
2022-08-27T07:38:56.745Z,19.70
2022-08-27T07:41:31.274Z,19.80
2022-08-27T07:44:18.975Z,19.90
2022-08-27T07:46:48.464Z,20.00
2022-08-27T07:49:19.446Z,20.20
2022-08-27T07:51:46.463Z,20.20
2022-08-27T07:54:13.451Z,20.20
2022-08-27T07:56:40.339Z,20.40
2022-08-27T07:59:07.844Z,20.40
2022-08-27T08:01:35.301Z,20.30
2022-08-27T08:04:02.792Z,20.40
2022-08-27T08:06:29.757Z,20.40
2022-08-27T08:08:56.700Z,20.40
2022-08-27T08:11:23.562Z,20.60
2022-08-27T08:13:50.450Z,20.80
2022-08-27T08:16:17.232Z,20.90
2022-08-27T08:18:44.123Z,20.90
2022-08-27T08:21:13.699Z,20.90
2022-08-27T08:23:42.399Z,21.10
2022-08-27T08:26:11.059Z,21.10
2022-08-27T08:28:39.254Z,21.20
2022-08-27T08:31:07.726Z,21.50
2022-08-27T08:33:35.645Z,21.60
2022-08-27T08:36:20.662Z,21.90
2022-08-27T08:38:47.793Z,21.90
2022-08-27T08:41:40.560Z,21.90
2022-08-27T08:44:22.350Z,22.00
2022-08-27T08:46:56.734Z,22.10
2022-08-27T08:49:38.480Z,22.30
2022-08-27T08:52:30.995Z,22.30
2022-08-27T08:55:03.439Z,22.20
2022-08-27T08:57:38.902Z,22.20
2022-08-27T09:00:12.501Z,22.30
2022-08-27T09:02:42.108Z,22.20
2022-08-27T09:05:09.801Z,22.40
2022-08-27T09:07:58.243Z,22.50
2022-08-27T09:10:50.734Z,22.50
2022-08-27T09:13:24.994Z,22.30
2022-08-27T09:15:56.939Z,22.20
2022-08-27T09:18:24.166Z,22.10
2022-08-27T09:21:27.821Z,21.90
2022-08-27T09:23:54.891Z,21.80
2022-08-27T09:26:28.069Z,21.60
2022-08-27T09:29:18.594Z,21.80
2022-08-27T09:31:55.578Z,21.90
2022-08-27T09:34:23.409Z,22.00
2022-08-27T09:36:59.972Z,22.10
2022-08-27T09:39:33.737Z,22.10
2022-08-27T09:42:03.084Z,22.10
2022-08-27T09:44:32.502Z,22.20
2022-08-27T09:47:02.707Z,22.20
2022-08-27T09:49:31.126Z,22.20
2022-08-27T09:51:58.994Z,22.20
2022-08-27T09:54:56.538Z,22.30
2022-08-27T09:57:40.535Z,22.30
2022-08-27T10:00:13.473Z,22.30
2022-08-27T10:02:51.281Z,22.40
2022-08-27T10:05:33.797Z,22.40
2022-08-27T10:08:04.958Z,22.40
2022-08-27T10:10:43.489Z,22.50
2022-08-27T10:13:19.610Z,22.80
2022-08-27T10:15:56.998Z,23.30
2022-08-27T10:18:32.911Z,23.50
2022-08-27T10:21:04.859Z,23.40
2022-08-27T10:23:51.023Z,23.30
2022-08-27T10:26:43.926Z,23.20
2022-08-27T10:29:38.463Z,23.20
2022-08-27T10:32:36.735Z,22.90
2022-08-27T10:35:12.235Z,22.90
2022-08-27T10:37:42.103Z,23.00
2022-08-27T10:40:18.139Z,23.40
2022-08-27T10:43:09.638Z,23.50
2022-08-27T10:45:51.192Z,23.40
2022-08-27T10:48:34.388Z,23.30
2022-08-27T10:51:04.426Z,23.30
2022-08-27T10:53:44.069Z,23.20
2022-08-27T10:56:33.244Z,23.00
2022-08-27T10:59:17.556Z,22.90
2022-08-27T11:02:05.666Z,22.80
2022-08-27T11:04:39.143Z,22.70
2022-08-27T11:07:17.888Z,22.70
2022-08-27T11:09:44.904Z,22.70
2022-08-27T11:12:17.439Z,22.60
2022-08-27T11:14:53.072Z,22.60
2022-08-27T11:17:37.718Z,22.50
2022-08-27T11:20:20.807Z,22.50
2022-08-27T11:22:55.354Z,22.40
2022-08-27T11:25:22.172Z,22.30
2022-08-27T11:27:53.543Z,22.30
2022-08-27T11:30:30.211Z,22.30
2022-08-27T11:33:14.192Z,22.30
2022-08-27T11:36:04.486Z,22.40
2022-08-27T11:38:49.939Z,22.40
2022-08-27T11:41:16.714Z,22.50
2022-08-27T11:43:44.957Z,22.60
2022-08-27T11:46:12.341Z,22.50
2022-08-27T11:48:43.139Z,22.60
2022-08-27T11:51:30.771Z,22.60
2022-08-27T11:54:07.654Z,22.60
2022-08-27T11:56:43.058Z,22.70
2022-08-27T11:59:28.548Z,22.80
2022-08-27T12:01:58.123Z,22.80
2022-08-27T12:04:31.175Z,22.90
2022-08-27T12:07:27.606Z,23.10
2022-08-27T12:10:00.351Z,23.20
2022-08-27T12:12:44.895Z,23.30
2022-08-27T12:15:31.155Z,23.30
2022-08-27T12:18:08.571Z,23.30
2022-08-27T12:20:57.002Z,23.20
2022-08-27T12:23:42.266Z,23.20
2022-08-27T12:26:35.325Z,23.30
2022-08-27T12:29:24.267Z,23.20
2022-08-27T12:32:07.191Z,23.30
2022-08-27T12:34:47.559Z,23.10
2022-08-27T12:37:14.373Z,23.20
2022-08-27T12:39:44.438Z,23.20
2022-08-27T12:42:19.091Z,23.20
2022-08-27T12:44:45.964Z,23.10
2022-08-27T12:47:16.121Z,23.30
2022-08-27T12:49:57.549Z,23.30
2022-08-27T12:52:36.176Z,23.30
2022-08-27T12:55:31.423Z,23.40
2022-08-27T12:58:17.658Z,23.60
2022-08-27T13:01:14.959Z,23.70
2022-08-27T13:03:47.336Z,23.80
2022-08-27T13:06:34.384Z,23.70
2022-08-27T13:09:07.269Z,23.90
2022-08-27T13:11:44.455Z,23.90
2022-08-27T13:14:20.418Z,23.80
2022-08-27T13:16:53.910Z,23.80
2022-08-27T13:19:35.730Z,24.00
2022-08-27T13:22:05.905Z,24.20
2022-08-27T13:24:54.568Z,24.30
2022-08-27T13:27:36.399Z,24.40
2022-08-27T13:30:08.451Z,24.50
2022-08-27T13:32:37.170Z,24.80
2022-08-27T13:35:06.543Z,24.80
2022-08-27T13:37:46.417Z,24.80
2022-08-27T13:40:32.024Z,24.90
2022-08-27T13:43:09.029Z,25.10
2022-08-27T13:45:37.987Z,25.10
2022-08-27T13:48:05.795Z,25.20
2022-08-27T13:50:34.763Z,25.30
2022-08-27T13:53:25.238Z,25.30
2022-08-27T13:55:53.692Z,25.30
2022-08-27T13:58:26.274Z,25.80
2022-08-27T14:00:53.782Z,26.40
2022-08-27T14:03:30.497Z,26.70
2022-08-27T14:05:57.539Z,26.70
2022-08-27T14:08:30.859Z,27.10
2022-08-27T14:11:04.837Z,27.10
2022-08-27T14:13:48.512Z,28.30
2022-08-27T14:16:26.433Z,29.80
2022-08-27T14:19:04.897Z,31.30
2022-08-27T14:21:32.382Z,31.80
2022-08-27T14:23:59.325Z,31.10
2022-08-27T14:26:26.680Z,31.00
2022-08-27T14:28:54.719Z,31.30
2022-08-27T14:31:22.486Z,31.10
2022-08-27T14:33:54.368Z,31.20
2022-08-27T14:36:22.755Z,30.90
2022-08-27T14:38:51.482Z,29.40
2022-08-27T14:41:21.581Z,28.40
2022-08-27T14:43:49.345Z,28.30
2022-08-27T14:46:26.208Z,28.90
2022-08-27T14:48:55.698Z,30.10
2022-08-27T14:51:32.190Z,29.90
2022-08-27T14:53:58.991Z,29.60
2022-08-27T14:56:26.070Z,29.90
2022-08-27T14:58:53.671Z,30.40
2022-08-27T15:01:23.850Z,29.80
2022-08-27T15:03:51.744Z,29.70
2022-08-27T15:06:19.825Z,29.30
2022-08-27T15:08:50.326Z,28.90
2022-08-27T15:11:29.249Z,28.50
2022-08-27T15:13:56.916Z,27.80
2022-08-27T15:16:32.480Z,27.00
2022-08-27T15:19:01.685Z,26.60
2022-08-27T15:21:31.021Z,26.20
2022-08-27T15:24:04.413Z,25.80
2022-08-27T15:26:32.020Z,25.50
2022-08-27T15:29:02.832Z,25.40
2022-08-27T15:31:32.656Z,25.30
2022-08-27T15:33:59.421Z,25.20
2022-08-27T15:36:26.264Z,25.00
2022-08-27T15:38:54.537Z,25.10
2022-08-27T15:41:24.255Z,25.30
2022-08-27T15:43:53.016Z,25.60
2022-08-27T15:46:20.107Z,25.20
2022-08-27T15:48:47.026Z,25.10
2022-08-27T15:51:14.867Z,24.80
2022-08-27T15:53:43.260Z,24.70
2022-08-27T15:56:10.082Z,24.70
2022-08-27T15:58:38.068Z,24.50
2022-08-27T16:01:17.407Z,24.50
2022-08-27T16:03:46.113Z,24.50
2022-08-27T16:06:18.830Z,24.40
2022-08-27T16:08:46.824Z,24.30
2022-08-27T16:11:14.047Z,24.20
2022-08-27T16:13:41.420Z,24.30
2022-08-27T16:16:10.309Z,24.20
2022-08-27T16:18:40.074Z,24.40
2022-08-27T16:21:06.994Z,24.30
2022-08-27T16:23:34.474Z,24.10
2022-08-27T16:26:01.772Z,23.90
2022-08-27T16:28:28.630Z,23.80
2022-08-27T16:30:56.820Z,23.70
2022-08-27T16:33:24.485Z,23.70
2022-08-27T16:35:51.723Z,23.60
2022-08-27T16:38:18.758Z,23.60
2022-08-27T16:40:51.893Z,23.70
2022-08-27T16:43:24.528Z,23.40
2022-08-27T16:45:53.691Z,23.10
2022-08-27T16:48:39.770Z,22.90
2022-08-27T16:51:11.450Z,22.70
2022-08-27T16:53:41.391Z,22.50
2022-08-27T16:56:09.377Z,22.40
2022-08-27T16:58:37.499Z,22.30
2022-08-27T17:01:08.673Z,22.30
2022-08-27T17:04:07.457Z,22.20
2022-08-27T17:06:32.828Z,22.00
2022-08-27T17:08:59.639Z,21.90
2022-08-27T17:11:28.828Z,21.80
2022-08-27T17:13:58.708Z,21.80
2022-08-27T17:16:29.503Z,21.80
2022-08-27T17:18:58.394Z,21.60
2022-08-27T17:21:29.781Z,21.50
2022-08-27T17:24:01.588Z,21.50
2022-08-27T17:26:30.223Z,21.40
2022-08-27T17:28:57.750Z,21.40
2022-08-27T17:31:32.796Z,21.30
2022-08-27T17:34:00.593Z,21.30
2022-08-27T17:36:30.256Z,21.20
2022-08-27T17:38:58.053Z,21.10
2022-08-27T17:41:39.317Z,21.10
2022-08-27T17:44:11.025Z,21.10
2022-08-27T17:46:37.838Z,20.90
2022-08-27T17:49:04.804Z,21.00
2022-08-27T17:51:31.691Z,20.90
2022-08-27T17:54:01.095Z,20.80
2022-08-27T17:56:29.276Z,20.80
2022-08-27T17:58:56.535Z,20.80
2022-08-27T18:01:30.514Z,20.70
2022-08-27T18:03:58.230Z,20.60
2022-08-27T18:06:28.183Z,20.60
2022-08-27T18:08:55.203Z,20.50
2022-08-27T18:11:22.943Z,20.50
2022-08-27T18:13:55.641Z,20.40
2022-08-27T18:16:22.679Z,20.40
2022-08-27T18:18:49.539Z,20.30
2022-08-27T18:21:25.045Z,20.30
2022-08-27T18:23:53.030Z,20.30
2022-08-27T18:26:22.197Z,20.30
2022-08-27T18:28:49.400Z,20.30
2022-08-27T18:31:18.381Z,20.30
2022-08-27T18:33:45.616Z,20.30
2022-08-27T18:36:13.484Z,20.30
2022-08-27T18:38:40.410Z,20.20
2022-08-27T18:41:08.358Z,20.10
2022-08-27T18:43:35.663Z,20.00
2022-08-27T18:46:04.474Z,19.90
2022-08-27T18:48:32.150Z,19.90
2022-08-27T18:51:01.646Z,20.00
2022-08-27T18:53:32.434Z,19.90
2022-08-27T18:56:00.092Z,19.90
2022-08-27T18:58:27.975Z,19.80
2022-08-27T19:00:58.589Z,19.80
2022-08-27T19:03:34.688Z,19.80
2022-08-27T19:06:02.254Z,19.80
2022-08-27T19:08:36.182Z,19.80
2022-08-27T19:11:03.335Z,19.70
2022-08-27T19:13:30.076Z,19.70
2022-08-27T19:16:00.657Z,19.60
2022-08-27T19:18:30.094Z,19.60
2022-08-27T19:20:57.552Z,19.60
2022-08-27T19:23:25.021Z,19.50
2022-08-27T19:25:52.647Z,19.50
2022-08-27T19:28:24.506Z,19.40
2022-08-27T19:30:51.448Z,19.50
2022-08-27T19:33:18.398Z,19.50
2022-08-27T19:35:45.216Z,19.50
2022-08-27T19:38:13.478Z,19.50
2022-08-27T19:40:41.157Z,19.50
2022-08-27T19:43:08.780Z,19.50
2022-08-27T19:45:36.493Z,19.50
2022-08-27T19:48:08.128Z,19.60
2022-08-27T19:50:35.159Z,19.60
2022-08-27T19:53:01.935Z,19.50
2022-08-27T19:55:28.912Z,19.50
2022-08-27T19:57:55.719Z,19.50
2022-08-27T20:00:27.829Z,19.50
2022-08-27T20:02:55.596Z,19.60
2022-08-27T20:05:23.095Z,19.60
2022-08-27T20:07:52.415Z,19.60
2022-08-27T20:10:22.778Z,19.70
2022-08-27T20:12:52.633Z,19.60
2022-08-27T20:15:21.016Z,19.60
2022-08-27T20:17:51.933Z,19.60
2022-08-27T20:20:23.028Z,19.70
2022-08-27T20:22:50.086Z,19.70
2022-08-27T20:25:17.325Z,19.70
2022-08-27T20:27:44.177Z,19.70
2022-08-27T20:30:13.470Z,19.80
2022-08-27T20:32:40.661Z,19.80
2022-08-27T20:35:09.624Z,19.80
2022-08-27T20:37:42.011Z,19.80
2022-08-27T20:40:12.729Z,19.80
2022-08-27T20:42:39.576Z,19.80
2022-08-27T20:45:11.787Z,19.80
2022-08-27T20:47:40.049Z,19.80
2022-08-27T20:50:07.438Z,19.80
2022-08-27T20:52:35.582Z,19.80
2022-08-27T20:55:03.595Z,19.80
2022-08-27T20:57:30.421Z,19.80
2022-08-27T21:00:15.770Z,19.80
2022-08-27T21:02:42.590Z,19.80
2022-08-27T21:05:15.577Z,19.80
2022-08-27T21:07:42.495Z,19.80
2022-08-27T21:10:09.608Z,19.70
2022-08-27T21:12:36.374Z,19.80
2022-08-27T21:15:05.711Z,19.80
2022-08-27T21:17:32.502Z,19.70
2022-08-27T21:19:59.267Z,19.80
2022-08-27T21:22:26.213Z,19.70
2022-08-27T21:24:53.154Z,19.70
2022-08-27T21:27:21.260Z,19.70
2022-08-27T21:29:48.922Z,19.70
2022-08-27T21:32:16.191Z,19.70
2022-08-27T21:34:43.167Z,19.70
2022-08-27T21:37:11.824Z,19.60
2022-08-27T21:39:39.910Z,19.70
2022-08-27T21:42:07.693Z,19.60
2022-08-27T21:44:34.886Z,19.60
2022-08-27T21:47:03.680Z,19.60
2022-08-27T21:49:34.322Z,19.60
2022-08-27T21:52:06.129Z,19.60
2022-08-27T21:54:35.494Z,19.60
2022-08-27T21:57:04.406Z,19.50
2022-08-27T21:59:33.073Z,19.60
2022-08-27T22:02:01.190Z,19.60
2022-08-27T22:04:30.580Z,19.50
2022-08-27T22:06:58.858Z,19.50
2022-08-27T22:09:26.509Z,19.40
2022-08-27T22:11:53.356Z,19.50
2022-08-27T22:14:20.217Z,19.40
2022-08-27T22:16:47.410Z,19.30
2022-08-27T22:19:14.196Z,19.40
2022-08-27T22:21:40.980Z,19.40
2022-08-27T22:24:08.318Z,19.40
2022-08-27T22:26:35.089Z,19.40
2022-08-27T22:29:03.744Z,19.30
2022-08-27T22:31:32.542Z,19.30
2022-08-27T22:34:00.772Z,19.30
2022-08-27T22:36:27.767Z,19.30
2022-08-27T22:38:54.867Z,19.30
2022-08-27T22:41:30.640Z,19.30
2022-08-27T22:43:59.821Z,19.30
2022-08-27T22:46:26.798Z,19.30
2022-08-27T22:48:53.612Z,19.30
2022-08-27T22:51:20.547Z,19.20
2022-08-27T22:53:47.342Z,19.20
2022-08-27T22:56:14.210Z,19.20
2022-08-27T22:58:41.164Z,19.20
2022-08-27T23:01:13.543Z,19.20
2022-08-27T23:03:40.375Z,19.20
2022-08-27T23:06:07.220Z,19.10
2022-08-27T23:08:34.034Z,19.10
2022-08-27T23:11:03.360Z,19.10
2022-08-27T23:13:31.922Z,19.20
2022-08-27T23:16:00.215Z,19.10
2022-08-27T23:18:27.373Z,19.10
2022-08-27T23:20:54.248Z,19.10
2022-08-27T23:23:21.078Z,19.10
2022-08-27T23:26:06.579Z,19.00
2022-08-27T23:28:33.568Z,19.00
2022-08-27T23:31:00.438Z,18.90
2022-08-27T23:33:27.214Z,18.80
2022-08-27T23:35:53.954Z,18.80
2022-08-27T23:38:21.731Z,18.80
2022-08-27T23:40:49.471Z,18.80
2022-08-27T23:43:17.325Z,18.80
2022-08-27T23:45:44.367Z,18.80
2022-08-27T23:48:11.755Z,18.80
2022-08-27T23:50:38.885Z,18.80
2022-08-27T23:53:07.487Z,18.80
2022-08-27T23:55:34.691Z,18.70
2022-08-27T23:58:02.551Z,18.70
